ΑΕΡΟΝΑΥΤΙΛΙΑ

ΚΩΔΙΚΕΣ ΕΛΛΗΝΙΚΩΝ ΑΕΡΟΔΡΟΜΙΩΝ

TAF LGML 040400Z 0406/0415 22015KT 9999 SCT020 PROB40 TEMPO 0406/0415 5000 RA FEW014 FEW018TCU BKN025 PROB30 TEMPO 0406/0415 4000 TSRA SCT012 FEW018CB BKN020 TEMPO 0406/0410 20018G30KT TEMPO 0410/0415 20015G25KT=

ΚΩΔΙΚΕΣ ΕΥΡΩΠΑΪΚΩΝ ΑΕΡΟΔΡΟΜΙΩΝ

LFPO 040930Z 28018G29KT 9999 BKN020 BKN036 11/08 Q0999 TEMPO30015G30KT=